x

Buoy E01 - Central Maine Shelf (44032) Wave Buoy

12:04am - Fri 25th Jul 2014 All times are EDT. -4 hours from GMT.

  • Sig Wave height 1.3ft
  • Peak Period 8s
  • Wind
    9mph
  • Sea Temp 59°f
  • Air Temp 61°f
  • Sea Pressure 1011mb
  • Buoy E01 - Central Maine Shelf
  • Buoy E01 - Central Maine Shelf

More Historic Weather Station data

Upgrade to MSW Pro to gain access to the past 30 days of data for over 8000 Wavebouys and Weather Stations around the globe.

Join Pro

Comparision Forecast

View Surf forecast
   
Fri 07/25 12:04am 1.3ft 8s 9
mph
1011mb 59f 61f
Thu 07/24 11:04pm 1.3ft 11s 7 9 mph 1010.8mb 59f 61f
10:04pm 1.6ft 11s 4 7 mph 1010.5mb 59f 61f
9:04pm 1.6ft 8s 4 7 mph 1010.2mb 60f 61f
8:04pm 1.6ft 11s 4
mph
1009.5mb 60f 61f
7:04pm 1.3ft 8s 4
mph
1009.2mb 60f 63f
6:04pm 1.6ft 8s 4 7 mph 1009.2mb 60f 62f
5:04pm 1.6ft 8s 4 7 mph 1009mb 58f 61f
4:04pm 1.6ft 8s 4 7 mph 1008.9mb 59f 62f
3:04pm 1.3ft 5s 7
mph
1009.3mb 59f 62f
2:04pm 2ft 8s 4 7 mph 1009.6mb 59f 62f
1:04pm 1.6ft 5s 7 9 mph 1009.7mb 59f 62f
12:04pm 2ft 5s 9
mph
1009.2mb 59f 61f
11:04am 2ft 6s 9
mph
1008.9mb 59f 61f
10:04am 1.3ft 3s 9 11 mph 1008.8mb 59f 61f
9:04am 3ft 8s 13 18 mph 1008mb 59f 62f
8:04am 2.5ft 5s 13 16 mph 1008mb 60f 63f
7:04am 3ft 5s 11
mph
1007.3mb 61f 64f
6:04am 3.5ft 6s 7 9 mph 1007.2mb 61f 64f
5:04am 3.5ft 6s 4 7 mph 1006.7mb 61f 64f
4:04am 3.5ft 6s 4
mph
1006.5mb 61f 63f
3:04am 4ft 6s 7 9 mph 1006.1mb 62f 64f
2:04am 4.5ft 6s 2 4 mph 1005.8mb 61f 64f
1:04am 3.5ft 6s 4
mph
1006.6mb 61f 64f
12:04am 4.5ft 6s 4 7 mph 1007mb 62f 65f
Wed 07/23 11:04pm 4.5ft 6s 7 9 mph 1007.3mb 61f 64f
10:04pm 5.5ft 6s 2 4 mph 1006.8mb 60f 67f
9:04pm 4.5ft 6s 7 9 mph 1007mb 60f 67f
8:04pm 5ft 6s 18 31 mph 1007.1mb 60f 69f
7:04pm 5ft 5s 18 20 mph 1005.6mb 60f 68f
6:04pm 5ft 5s 18 20 mph 1005.4mb 61f 68f
5:04pm 4.5ft 5s 18 20 mph 1005.9mb 62f 68f
4:04pm 5ft 5s 16 20 mph 1006.1mb 62f 67f
3:04pm 4.5ft 5s 18 20 mph 1006.7mb 62f 67f
2:04pm 4.5ft 5s 13 16 mph 1007.4mb 61f 67f
1:04pm 3.5ft 5s 13 16 mph 1008.1mb 61f 66f
12:04pm 4.5ft 5s 16 20 mph 1008.6mb 61f 66f
11:04am 3ft 5s 16 18 mph 1009.4mb 61f 66f
10:04am 3.5ft 5s 13 16 mph 1009.8mb 61f 65f
9:04am 2.5ft 5s 13 16 mph 1010mb 61f 66f
8:04am 4ft 6s 13 16 mph 1010.3mb 61f 65f
7:04am 3.5ft 8s 13 16 mph 1010.6mb 61f 65f
6:04am 3.5ft 5s 13
mph
1010.7mb 60f 65f
5:04am 3.5ft 5s 13 16 mph 1011mb 61f 65f
4:04am 3.5ft 5s 13
mph
1011.4mb 61f 66f
3:04am 3ft 5s 13 16 mph 1011.6mb 61f 67f
2:04am 3ft 5s 13 16 mph 1011.9mb 62f 67f
1:04am 3ft 5s 13 16 mph 1012.4mb 62f 67f
12:04am 3ft 5s 13 16 mph 1012.8mb 62f 67f
Tue 07/22 11:04pm 3.5ft 5s 13
mph
1013.5mb 63f 67f
10:04pm 3.5ft 6s 13 16 mph 1014.2mb 62f 67f
9:04pm 3.5ft 4s 16 18 mph 1014.3mb 63f 68f
8:04pm 3.5ft 6s 13 16 mph 1014.3mb 63f 67f
7:04pm 3.5ft 6s 13 16 mph 1014.6mb 63f 67f
6:04pm 3.5ft 8s 13 16 mph 1015.1mb 64f 68f
5:04pm 3.5ft 8s 11 13 mph 1015.9mb 64f 67f
4:04pm 3.5ft 8s 9 11 mph 1016.7mb 64f 67f
3:04pm 2.5ft 8s 9
mph
1017.6mb 64f 67f
2:04pm 3ft 8s 11 13 mph 1017.6mb 63f 67f
1:04pm 2.5ft 8s 11 13 mph 1017.9mb 63f 66f
12:04pm 2.5ft 8s 7 9 mph 1018.7mb 63f 66f
11:04am 2.5ft 6s 4
mph
1019.7mb 63f 66f
10:04am 2.5ft 6s 7 9 mph 1019.1mb 63f 66f
9:04am 3ft 8s 9
mph
1019mb 63f 65f
8:04am 3ft 6s 9
mph
1019.4mb 62f 65f
7:04am 2.5ft 6s 7
mph
1019.3mb 61f 66f
6:04am 3ft 6s 7
mph
1019.4mb 61f 64f
5:04am 2.5ft 8s 7
mph
1019.4mb 61f 63f
4:04am 2.5ft 8s 4
mph
1019.3mb 61f 62f
3:04am 2.5ft 8s 2 4 mph 1019.5mb 61f 62f
2:04am 2.5ft 6s 4
mph
1019.8mb 62f 63f
1:04am 2.5ft 8s 2
mph
1020.1mb 62f 63f
12:04am 2.5ft 8s 4
mph
1020.4mb 62f 64f
Mon 07/21 11:04pm 2.5ft 6s 4
mph
1020.5mb 63f 64f
10:04pm 2.5ft 8s 7
mph
1020.6mb 64f 65f
9:04pm 2.5ft 6s 4 7 mph 1020.4mb 64f 66f
8:04pm 3.5ft 6s 7 9 mph 1020.1mb 65f 66f
7:04pm 3.5ft 8s 9
mph
1020mb 65f 67f
6:04pm 3.5ft 6s 9
mph
1020.1mb 65f 67f
5:04pm 2.5ft 8s 9
mph
1020.3mb 65f 65f
4:04pm 2.5ft 8s 7 9 mph 1020.8mb 64f 65f
3:04pm 2.5ft 8s 7 9 mph 1021.3mb 64f 64f
2:04pm 2.5ft 8s 7 9 mph 1021.8mb 64f 64f
1:04pm 2.5ft 8s 2 4 mph 1022mb 64f 65f
12:04pm 2ft 8s 2 4 mph 1022.2mb 64f 65f
11:04am 1.6ft 8s 4
mph
1022.3mb 62f 63f
10:04am 2ft 8s 4 7 mph 1021.9mb 62f 63f
9:04am 1.6ft 8s 4 7 mph 1022mb 62f 61f
8:04am 2ft 8s 7
mph
1021.9mb 62f 61f
7:04am 2.5ft 8s 7 9 mph 1021.7mb 62f 62f
6:04am 2.5ft 8s 7 9 mph 1021.4mb 60f 61f